createdAt,value
2022-10-29T00:00:55.799Z,16.40
2022-10-29T00:03:48.670Z,16.30
2022-10-29T00:09:18.887Z,16.30
2022-10-29T00:14:53.480Z,16.30
2022-10-29T00:17:44.993Z,16.20
2022-10-29T00:20:36.286Z,16.10
2022-10-29T00:23:27.599Z,16.10
2022-10-29T00:26:20.009Z,16.10
2022-10-29T00:29:11.083Z,16.10
2022-10-29T00:34:45.403Z,16.00
2022-10-29T00:40:16.291Z,15.90
2022-10-29T00:43:17.580Z,15.80
2022-10-29T00:46:12.183Z,15.90
2022-10-29T00:49:04.175Z,15.90
2022-10-29T00:51:56.037Z,15.80
2022-10-29T00:54:48.745Z,15.80
2022-10-29T00:57:42.554Z,15.90
2022-10-29T01:00:33.998Z,15.90
2022-10-29T01:03:25.591Z,15.80
2022-10-29T01:06:17.001Z,15.80
2022-10-29T01:09:08.228Z,15.70
2022-10-29T01:12:06.655Z,15.70
2022-10-29T01:15:04.493Z,15.70
2022-10-29T01:18:01.781Z,15.70
2022-10-29T01:21:29.563Z,15.60
2022-10-29T01:24:56.582Z,15.60
2022-10-29T01:28:10.131Z,15.50
2022-10-29T01:31:12.823Z,15.40
2022-10-29T01:36:54.238Z,15.40
2022-10-29T01:39:48.412Z,15.50
2022-10-29T01:42:41.703Z,15.50
2022-10-29T01:45:35.244Z,15.50
2022-10-29T01:48:33.059Z,15.40
2022-10-29T01:56:57.542Z,15.30
2022-10-29T01:59:55.435Z,15.60
2022-10-29T02:02:52.915Z,15.50
2022-10-29T02:05:47.575Z,15.60
2022-10-29T02:08:43.056Z,15.50
2022-10-29T02:11:37.486Z,15.50
2022-10-29T02:14:31.847Z,15.50
2022-10-29T02:17:22.882Z,15.50
2022-10-29T02:20:16.402Z,15.40
2022-10-29T02:23:07.840Z,15.40
2022-10-29T02:25:59.041Z,15.40
2022-10-29T02:28:50.436Z,15.50
2022-10-29T02:34:20.853Z,15.40
2022-10-29T02:37:11.882Z,15.30
2022-10-29T02:40:03.229Z,15.30
2022-10-29T02:42:55.048Z,15.20
2022-10-29T02:45:46.877Z,15.20
2022-10-29T02:51:20.260Z,15.30
2022-10-29T02:54:11.315Z,15.30
2022-10-29T02:57:02.528Z,15.30
2022-10-29T02:59:54.070Z,15.20
2022-10-29T03:02:45.560Z,15.20
2022-10-29T03:08:20.239Z,15.10
2022-10-29T03:11:11.302Z,15.10
2022-10-29T03:14:02.477Z,15.00
2022-10-29T03:16:54.106Z,15.00
2022-10-29T03:22:24.484Z,15.00
2022-10-29T03:25:15.405Z,15.00
2022-10-29T03:28:07.107Z,14.90
2022-10-29T03:30:58.287Z,15.00
2022-10-29T03:33:49.702Z,15.00
2022-10-29T03:36:41.117Z,14.90
2022-10-29T03:39:32.296Z,14.80
2022-10-29T03:42:23.902Z,14.80
2022-10-29T03:45:15.521Z,14.80
2022-10-29T03:48:08.255Z,14.80
2022-10-29T03:51:01.626Z,14.80
2022-10-29T03:53:52.811Z,14.80
2022-10-29T03:59:35.244Z,14.80
2022-10-29T04:02:26.921Z,14.80
2022-10-29T04:07:59.109Z,14.80
2022-10-29T04:10:51.777Z,14.80
2022-10-29T04:13:43.336Z,14.80
2022-10-29T04:16:34.439Z,14.70
2022-10-29T04:19:26.138Z,14.70
2022-10-29T04:24:12.329Z,14.70
2022-10-29T04:30:57.184Z,14.60
2022-10-29T04:33:48.749Z,14.60
2022-10-29T04:39:21.028Z,14.60
2022-10-29T04:44:53.746Z,14.50
2022-10-29T04:47:44.856Z,14.50
2022-10-29T04:50:38.352Z,14.50
2022-10-29T04:53:29.543Z,14.50
2022-10-29T04:56:21.424Z,14.50
2022-10-29T04:59:12.635Z,14.50
2022-10-29T05:04:47.565Z,14.50
2022-10-29T05:07:39.085Z,14.40
2022-10-29T05:10:31.759Z,14.40
2022-10-29T05:19:59.150Z,14.50
2022-10-29T05:22:50.770Z,14.50
2022-10-29T05:25:43.008Z,14.50
2022-10-29T05:28:34.529Z,14.50
2022-10-29T05:31:26.238Z,14.50
2022-10-29T05:34:17.717Z,14.40
2022-10-29T05:39:48.930Z,14.30
2022-10-29T05:42:46.385Z,14.30
2022-10-29T05:45:33.561Z,14.30
2022-10-29T05:48:24.525Z,14.30
2022-10-29T05:51:16.127Z,14.30
2022-10-29T05:54:07.987Z,14.30
2022-10-29T05:59:40.967Z,14.20
2022-10-29T06:02:32.232Z,14.30
2022-10-29T06:05:24.608Z,14.30
2022-10-29T06:08:17.256Z,14.30
2022-10-29T06:13:48.579Z,14.30
2022-10-29T06:19:19.584Z,14.40
2022-10-29T06:24:50.246Z,14.30
2022-10-29T06:27:41.547Z,14.30
2022-10-29T06:30:35.729Z,14.30
2022-10-29T06:33:27.299Z,14.30
2022-10-29T06:36:18.621Z,14.30
2022-10-29T06:39:10.084Z,14.30
2022-10-29T06:44:40.532Z,14.40
2022-10-29T06:47:31.925Z,14.40
2022-10-29T06:50:23.917Z,14.40
2022-10-29T06:53:17.729Z,14.50
2022-10-29T06:56:09.224Z,14.50
2022-10-29T06:59:00.232Z,14.50
2022-10-29T07:01:51.691Z,14.50
2022-10-29T07:04:42.833Z,14.50
2022-10-29T07:07:33.921Z,14.60
2022-10-29T07:10:26.113Z,14.70
2022-10-29T07:13:17.626Z,14.70
2022-10-29T07:16:10.055Z,14.80
2022-10-29T07:19:01.330Z,14.80
2022-10-29T07:21:52.905Z,14.80
2022-10-29T07:24:44.408Z,14.80
2022-10-29T07:27:35.769Z,14.80
2022-10-29T07:30:27.110Z,14.80
2022-10-29T07:33:19.046Z,14.90
2022-10-29T07:36:10.840Z,14.90
2022-10-29T07:39:04.125Z,14.90
2022-10-29T07:41:59.084Z,15.00
2022-10-29T07:44:48.411Z,15.10
2022-10-29T07:47:39.578Z,15.10
2022-10-29T07:50:32.325Z,15.30
2022-10-29T07:53:23.586Z,15.30
2022-10-29T07:56:15.232Z,15.40
2022-10-29T07:59:08.563Z,15.50
2022-10-29T08:02:00.073Z,15.50
2022-10-29T08:04:51.845Z,15.50
2022-10-29T08:07:43.472Z,15.60
2022-10-29T08:10:35.543Z,15.60
2022-10-29T08:13:27.393Z,15.70
2022-10-29T08:16:19.464Z,15.80
2022-10-29T08:19:11.863Z,15.80
2022-10-29T08:22:03.284Z,15.90
2022-10-29T08:24:55.072Z,16.00
2022-10-29T08:27:46.634Z,16.00
2022-10-29T08:30:37.853Z,16.10
2022-10-29T08:33:29.127Z,16.20
2022-10-29T08:36:20.486Z,16.20
2022-10-29T08:39:12.020Z,16.30
2022-10-29T08:42:08.939Z,16.40
2022-10-29T08:45:17.771Z,16.50
2022-10-29T08:48:23.578Z,16.70
2022-10-29T08:51:20.242Z,16.80
2022-10-29T08:54:32.354Z,16.90
2022-10-29T08:57:13.920Z,16.90
2022-10-29T09:03:01.210Z,17.00
2022-10-29T09:51:47.958Z,18.40
2022-10-29T09:54:38.976Z,18.50
2022-10-29T09:57:33.060Z,18.60
2022-10-29T10:00:27.296Z,18.70
2022-10-29T10:03:22.454Z,18.70
2022-10-29T10:06:16.386Z,18.70
2022-10-29T10:09:08.584Z,18.90
2022-10-29T10:12:00.078Z,18.90
2022-10-29T10:14:53.342Z,19.00
2022-10-29T10:18:00.396Z,19.10
2022-10-29T10:21:12.757Z,19.10
2022-10-29T10:24:04.441Z,19.20
2022-10-29T10:26:55.834Z,19.20
2022-10-29T10:29:49.555Z,19.30
2022-10-29T10:32:40.681Z,19.40
2022-10-29T11:32:26.509Z,20.10
2022-10-29T11:35:24.510Z,20.20
2022-10-29T11:41:13.174Z,20.40
2022-10-29T11:44:04.439Z,20.40
2022-10-29T11:47:03.600Z,20.50
2022-10-29T11:50:02.744Z,20.50
2022-10-29T12:07:47.489Z,20.60
2022-10-29T12:10:49.220Z,20.90
2022-10-29T12:13:50.266Z,21.00
2022-10-29T12:16:47.427Z,21.20
2022-10-29T12:19:45.075Z,21.20
2022-10-29T12:22:41.222Z,21.30
2022-10-29T12:25:40.096Z,21.30
2022-10-29T12:28:36.781Z,21.40
2022-10-29T12:31:32.724Z,21.40
2022-10-29T12:34:29.067Z,21.50
2022-10-29T12:37:24.733Z,21.60
2022-10-29T12:40:19.978Z,21.70
2022-10-29T12:43:15.450Z,21.70
2022-10-29T12:46:19.950Z,21.80
2022-10-29T12:49:08.588Z,21.90
2022-10-29T12:52:03.101Z,21.90
2022-10-29T12:54:55.847Z,21.90
2022-10-29T12:57:47.188Z,22.00
2022-10-29T13:00:57.314Z,22.00
2022-10-29T13:04:04.134Z,22.10
2022-10-29T13:07:06.442Z,22.20
2022-10-29T13:10:33.534Z,22.20
2022-10-29T13:13:41.202Z,22.30
2022-10-29T13:16:33.528Z,22.30
2022-10-29T13:19:48.276Z,22.40
2022-10-29T13:22:57.325Z,22.40
2022-10-29T13:25:50.362Z,22.50
2022-10-29T13:28:53.210Z,22.50
2022-10-29T13:31:50.481Z,22.70
2022-10-29T13:35:01.787Z,22.70
2022-10-29T13:37:54.778Z,22.80
2022-10-29T13:41:13.023Z,22.90
2022-10-29T13:44:08.890Z,23.00
2022-10-29T13:47:02.693Z,23.00
2022-10-29T13:49:54.308Z,23.00
2022-10-29T13:52:48.076Z,23.10
2022-10-29T13:55:41.537Z,23.10
2022-10-29T13:58:38.655Z,23.10
2022-10-29T14:01:33.150Z,23.10
2022-10-29T14:04:29.176Z,23.20
2022-10-29T14:07:23.589Z,23.20
2022-10-29T14:10:20.346Z,23.20
2022-10-29T14:13:14.456Z,23.30
2022-10-29T14:16:10.734Z,23.20
2022-10-29T14:19:15.034Z,23.30
2022-10-29T14:22:17.427Z,23.40
2022-10-29T14:28:19.596Z,23.30
2022-10-29T14:31:16.462Z,23.50
2022-10-29T14:34:09.236Z,23.50
2022-10-29T14:37:03.377Z,23.40
2022-10-29T14:39:59.086Z,23.30
2022-10-29T14:42:54.872Z,23.30
2022-10-29T14:45:46.388Z,23.30
2022-10-29T14:48:38.113Z,23.30
2022-10-29T14:51:31.553Z,23.30
2022-10-29T14:54:26.427Z,23.20
2022-10-29T14:57:20.411Z,23.10
2022-10-29T15:03:09.400Z,23.10
2022-10-29T15:06:19.221Z,23.10
2022-10-29T15:12:32.775Z,23.10
2022-10-29T15:15:27.281Z,23.00
2022-10-29T15:18:21.449Z,23.10
2022-10-29T15:21:12.635Z,23.10
2022-10-29T15:24:07.404Z,23.00
2022-10-29T15:27:02.295Z,23.00
2022-10-29T15:29:55.314Z,22.80
2022-10-29T15:32:46.994Z,22.70
2022-10-29T15:35:39.986Z,22.70
2022-10-29T15:39:12.605Z,22.60
2022-10-29T15:42:04.147Z,22.60
2022-10-29T15:45:21.114Z,22.50
2022-10-29T15:48:36.230Z,22.40
2022-10-29T15:51:29.930Z,22.30
2022-10-29T15:54:21.072Z,22.10
2022-10-29T15:57:14.981Z,21.90
2022-10-29T16:00:08.650Z,21.80
2022-10-29T16:03:04.148Z,21.70
2022-10-29T16:05:58.130Z,21.50
2022-10-29T16:08:52.286Z,21.50
2022-10-29T16:11:43.677Z,21.40
2022-10-29T16:14:34.655Z,21.30
2022-10-29T16:17:25.494Z,21.20
2022-10-29T16:20:18.880Z,21.10
2022-10-29T16:23:12.336Z,21.00
2022-10-29T16:26:03.387Z,20.80
2022-10-29T16:28:55.020Z,20.80
2022-10-29T16:31:46.316Z,20.60
2022-10-29T16:34:37.825Z,20.50
2022-10-29T16:37:29.290Z,20.40
2022-10-29T16:40:23.118Z,20.20
2022-10-29T16:43:14.638Z,20.10
2022-10-29T16:46:06.271Z,19.90
2022-10-29T16:48:57.904Z,19.90
2022-10-29T16:51:49.231Z,19.80
2022-10-29T16:54:40.887Z,19.70
2022-10-29T16:57:32.518Z,19.60
2022-10-29T17:00:26.107Z,19.50
2022-10-29T17:03:19.995Z,19.50
2022-10-29T17:06:12.646Z,19.30
2022-10-29T17:09:05.586Z,19.30
2022-10-29T17:11:56.715Z,19.30
2022-10-29T17:14:48.008Z,19.20
2022-10-29T17:17:42.341Z,19.20
2022-10-29T17:20:31.932Z,19.10
2022-10-29T17:23:23.324Z,19.00
2022-10-29T17:26:14.758Z,19.00
2022-10-29T17:29:06.462Z,18.90
2022-10-29T17:31:57.788Z,18.80
2022-10-29T17:34:49.359Z,18.60
2022-10-29T17:37:40.784Z,18.50
2022-10-29T17:40:32.362Z,18.40
2022-10-29T17:43:23.853Z,18.30
2022-10-29T17:46:15.686Z,18.30
2022-10-29T17:49:06.810Z,18.10
2022-10-29T17:51:58.142Z,18.10
2022-10-29T17:54:49.704Z,18.20
2022-10-29T17:57:41.613Z,18.20
2022-10-29T18:00:33.379Z,18.20
2022-10-29T18:03:28.235Z,18.20
2022-10-29T18:06:19.812Z,18.20
2022-10-29T18:09:11.441Z,18.20
2022-10-29T18:12:02.940Z,18.10
2022-10-29T18:14:54.462Z,17.80
2022-10-29T18:17:46.272Z,17.70
2022-10-29T18:20:37.876Z,17.80
2022-10-29T18:23:29.211Z,17.80
2022-10-29T18:26:26.629Z,17.80
2022-10-29T18:29:18.223Z,17.90
2022-10-29T18:32:09.329Z,17.90
2022-10-29T18:35:00.755Z,18.00
2022-10-29T18:37:52.168Z,18.00
2022-10-29T18:40:43.716Z,18.00
2022-10-29T18:43:36.009Z,18.00
2022-10-29T18:46:27.375Z,17.90
2022-10-29T18:49:18.462Z,17.90
2022-10-29T18:52:09.941Z,17.80
2022-10-29T18:55:01.380Z,17.80
2022-10-29T18:57:52.478Z,17.80
2022-10-29T19:00:44.290Z,17.80
2022-10-29T19:03:35.866Z,17.80
2022-10-29T19:06:28.845Z,17.80
2022-10-29T19:09:20.125Z,17.80
2022-10-29T19:14:51.958Z,17.70
2022-10-29T19:17:43.176Z,17.70
2022-10-29T19:20:37.080Z,17.70
2022-10-29T19:23:27.986Z,17.60
2022-10-29T19:26:19.853Z,17.60
2022-10-29T19:29:11.878Z,17.60
2022-10-29T19:32:03.125Z,17.60
2022-10-29T19:34:54.054Z,17.50
2022-10-29T19:37:44.952Z,17.50
2022-10-29T19:43:18.547Z,17.50
2022-10-29T19:46:12.404Z,17.40
2022-10-29T19:49:03.609Z,17.50
2022-10-29T19:51:56.473Z,17.50
2022-10-29T19:54:47.541Z,17.50
2022-10-29T19:57:38.837Z,17.50
2022-10-29T20:03:10.524Z,17.40
2022-10-29T20:06:01.459Z,17.40
2022-10-29T20:08:52.457Z,17.30
2022-10-29T20:11:44.235Z,17.30
2022-10-29T20:14:35.704Z,17.30
2022-10-29T20:17:26.846Z,17.30
2022-10-29T20:20:18.170Z,17.20
2022-10-29T20:23:09.763Z,17.20
2022-10-29T20:26:00.901Z,17.20
2022-10-29T20:28:52.326Z,17.10
2022-10-29T20:31:44.020Z,17.00
2022-10-29T20:34:35.170Z,17.00
2022-10-29T20:40:06.726Z,16.90
2022-10-29T20:42:57.863Z,16.90
2022-10-29T20:45:49.026Z,16.80
2022-10-29T20:51:19.502Z,16.80
2022-10-29T20:54:10.815Z,16.80
2022-10-29T20:57:02.054Z,16.80
2022-10-29T20:59:53.380Z,16.80
2022-10-29T21:02:44.418Z,16.70
2022-10-29T21:05:35.717Z,16.70
2022-10-29T21:11:21.655Z,16.70
2022-10-29T21:16:51.047Z,16.60
2022-10-29T21:19:42.891Z,16.50
2022-10-29T21:22:33.872Z,16.50
2022-10-29T21:25:25.161Z,16.50
2022-10-29T21:28:16.393Z,16.40
2022-10-29T21:31:08.042Z,16.40
2022-10-29T21:33:59.353Z,16.40
2022-10-29T21:36:50.524Z,16.40
2022-10-29T21:42:19.725Z,16.30
2022-10-29T21:45:11.916Z,16.30
2022-10-29T21:48:03.248Z,16.30
2022-10-29T21:51:00.703Z,16.30
2022-10-29T21:53:51.922Z,16.20
2022-10-29T21:56:42.981Z,16.30
2022-10-29T21:59:34.176Z,16.20
2022-10-29T22:02:25.231Z,16.30
2022-10-29T22:05:16.611Z,16.20
2022-10-29T22:08:07.735Z,16.20
2022-10-29T22:11:00.342Z,16.20
2022-10-29T22:13:51.152Z,16.20
2022-10-29T22:16:42.396Z,16.20
2022-10-29T22:19:33.295Z,16.20
2022-10-29T22:22:24.457Z,16.20
2022-10-29T22:25:15.444Z,16.20
2022-10-29T22:28:06.877Z,16.20
2022-10-29T22:31:02.839Z,16.10
2022-10-29T22:33:55.047Z,16.10
2022-10-29T22:36:45.870Z,16.00
2022-10-29T22:39:37.055Z,16.00
2022-10-29T22:42:27.974Z,16.00
2022-10-29T22:45:19.215Z,16.00
2022-10-29T22:48:10.268Z,15.90
2022-10-29T22:51:03.264Z,15.90
2022-10-29T22:53:55.247Z,15.80
2022-10-29T22:56:46.420Z,15.80
2022-10-29T22:59:37.574Z,15.80
2022-10-29T23:02:28.810Z,15.80
2022-10-29T23:05:20.067Z,15.70
2022-10-29T23:08:11.299Z,15.70
2022-10-29T23:11:06.336Z,15.70
2022-10-29T23:13:59.507Z,15.70
2022-10-29T23:16:50.427Z,15.70
2022-10-29T23:19:41.409Z,15.70
2022-10-29T23:22:32.551Z,15.60
2022-10-29T23:25:23.421Z,15.60
2022-10-29T23:28:14.317Z,15.50
2022-10-29T23:31:07.562Z,15.40
2022-10-29T23:33:59.325Z,15.40
2022-10-29T23:36:50.415Z,15.30
2022-10-29T23:39:41.461Z,15.30
2022-10-29T23:42:33.652Z,15.20
2022-10-29T23:45:35.207Z,15.20
2022-10-29T23:48:29.683Z,15.20
2022-10-29T23:51:39.613Z,15.10
2022-10-29T23:54:34.656Z,15.00
2022-10-29T23:57:29.138Z,15.00
